M/V Manukai — WRGD — position and weather

sailwx.info

Track history (hours):
 
Tides and Currents Weather Stations Pressure Air Temp Water Temp Dewpoint Dewpoint Depression Visibility Wind Speed Wind Dir Waves Ship Positions

M/V Manukai

Owner: Matson Navigation Company, Inc., Oakland, CA. More information available from US FCC via Universal Licensing System and Coast Guard Vessel Documentation Center.

Last reported at 2015-Mar-26 00:27 UTC. Time now 2015-Mar-29 01:13 UTC.
Position N 31°06' E 122°27'.

Type: Ship (hazmat cat A). MMSI: 369296000.

Date/timePositionNaut miles runAvg speedWind from/ knotsBaromVisibWave heightAir tempDewpointWater temp
2015-Mar-26 00:27N 31°06' E 122°27'1213.2
2015-Mar-25 23:33N 31°09' E 122°14'1514.8
2015-Mar-25 22:33N 31°15' E 121°58'1514.8
2015-Mar-25 21:34N 31°20' E 121°42'7 7.0
2015-Mar-25 20:34N 31°23' E 121°34'0 0.0
2015-Mar-25 19:31N 31°23' E 121°34'0 0.0
2015-Mar-25 18:31N 31°23' E 121°34'0 0.0
2015-Mar-25 17:28N 31°23' E 121°34'0 0.0
2015-Mar-25 16:31N 31°23' E 121°34'0 0.0
2015-Mar-25 15:31N 31°23' E 121°34'0 0.0
2015-Mar-25 14:31N 31°23' E 121°34'0 0.0
2015-Mar-25 13:31N 31°23' E 121°34'0 0.0
2015-Mar-25 12:31N 31°23' E 121°34'0 0.0
2015-Mar-25 11:28N 31°23' E 121°34'0 0.0
2015-Mar-25 10:31N 31°23' E 121°34'0 0.0
2015-Mar-25 09:31N 31°23' E 121°34'0 0.0
2015-Mar-25 08:31N 31°23' E 121°34'0 0.5
2015-Mar-25 07:33N 31°23' E 121°34'2 1.9
2015-Mar-25 06:33N 31°23' E 121°36'10 9.8
2015-Mar-25 05:33N 31°18' E 121°47'1110.5
2015-Mar-25 04:33N 31°15' E 121°58'10 9.8
2015-Mar-25 03:33N 31°12' E 122°09'8 7.8
2015-Mar-25 02:33N 31°07' E 122°17'1010.1
2015-Mar-25 01:33N 31°07' E 122°28'85 5.5
2015-Mar-24 10:15N 29°43' E 122°39'1217.0
2015-Mar-24 09:32N 29°42' E 122°25'1313.6
2015-Mar-24 08:33N 29°50' E 122°13'1312.9
2015-Mar-24 07:33N 29°57' E 121°60'8 8.1
2015-Mar-24 06:33N 29°57' E 121°50'0 0.0
2015-Mar-24 05:33N 29°57' E 121°50'0 0.0
2015-Mar-24 04:33N 29°57' E 121°50'0 0.0
2015-Mar-24 03:27N 29°57' E 121°50'0 0.0
2015-Mar-24 02:21N 29°57' E 121°50'0 0.0
2015-Mar-24 01:33N 29°57' E 121°50'0 0.0
2015-Mar-24 00:33N 29°57' E 121°50'0 0.1
2015-Mar-23 23:33N 29°57' E 121°50'8 7.9
2015-Mar-23 22:33N 29°57' E 121°60'1110.5
2015-Mar-23 21:33N 29°54' E 122°11'10 9.5
2015-Mar-23 20:29N 29°46' E 122°18'1010.7
2015-Mar-23 19:33N 29°42' E 122°29'34319.7
2015-Mar-23 02:08N 24°42' E 119°23'1221.1
2015-Mar-23 01:33N 24°36' E 119°11'2221.6
2015-Mar-23 00:33N 24°25' E 118°50'2221.6
2015-Mar-22 23:33N 24°17' E 118°28'1716.8
2015-Mar-22 22:33N 24°20' E 118°10'1110.9
2015-Mar-22 21:33N 24°29' E 118°04'2 1.5
2015-Mar-22 20:33N 24°31' E 118°05'0 0.0
2015-Mar-22 19:23N 24°31' E 118°05'0 0.0
2015-Mar-22 18:32N 24°31' E 118°05'0 0.0
2015-Mar-22 17:32N 24°31' E 118°05'0 0.1
2015-Mar-22 16:32N 24°31' E 118°05'0 0.1
2015-Mar-22 15:32N 24°31' E 118°05'0 0.0
2015-Mar-22 14:29N 24°31' E 118°05'0 0.2
2015-Mar-22 13:34N 24°31' E 118°04'9 8.8
2015-Mar-22 12:32N 24°22' E 118°08'1515.6
2015-Mar-22 11:33N 24°11' E 118°19'12921.5
2015-Mar-22 05:33N 22°36' E 119°55'2222.0
2015-Mar-22 04:33N 22°18' E 120°09'64622.6
2015-Mar-21 00:00N 18°30' E 130°54'   050 / 131016.010.8 0.526.021.826.6
2015-Mar-17 05:00N 14°00' E 146°12'26524.1 170 / 61010.010.8 1.027.024.327.3
2015-Mar-16 18:00N 15°12' E 150°36'   110 / 131014.210.8 1.025.022.227.0
Track history (hours):
 
Tides and Currents Weather Stations Pressure Air Temp Water Temp Dewpoint Dewpoint Depression Visibility Wind Speed Wind Dir Waves Ship Positions

M/V Manukai

Owner: Matson Navigation Company, Inc., Oakland, CA. More information available from US FCC via Universal Licensing System and Coast Guard Vessel Documentation Center.

Last reported at 2015-Mar-26 00:27 UTC. Time now 2015-Mar-29 01:13 UTC.
Position N 31°06' E 122°27'.

Type: Ship (hazmat cat A). MMSI: 369296000.

Date/timePositionNaut miles runAvg speedWind from/ knotsBaromVisibWave heightAir tempDewpointWater temp
2015-Mar-26 00:27N 31°06' E 122°27'1213.2
2015-Mar-25 23:33N 31°09' E 122°14'1514.8
2015-Mar-25 22:33N 31°15' E 121°58'1514.8
2015-Mar-25 21:34N 31°20' E 121°42'7 7.0
2015-Mar-25 20:34N 31°23' E 121°34'0 0.0
2015-Mar-25 19:31N 31°23' E 121°34'0 0.0
2015-Mar-25 18:31N 31°23' E 121°34'0 0.0
2015-Mar-25 17:28N 31°23' E 121°34'0 0.0
2015-Mar-25 16:31N 31°23' E 121°34'0 0.0
2015-Mar-25 15:31N 31°23' E 121°34'0 0.0
2015-Mar-25 14:31N 31°23' E 121°34'0 0.0
2015-Mar-25 13:31N 31°23' E 121°34'0 0.0
2015-Mar-25 12:31N 31°23' E 121°34'0 0.0
2015-Mar-25 11:28N 31°23' E 121°34'0 0.0
2015-Mar-25 10:31N 31°23' E 121°34'0 0.0
2015-Mar-25 09:31N 31°23' E 121°34'0 0.0
2015-Mar-25 08:31N 31°23' E 121°34'0 0.5
2015-Mar-25 07:33N 31°23' E 121°34'2 1.9
2015-Mar-25 06:33N 31°23' E 121°36'10 9.8
2015-Mar-25 05:33N 31°18' E 121°47'1110.5
2015-Mar-25 04:33N 31°15' E 121°58'10 9.8
2015-Mar-25 03:33N 31°12' E 122°09'8 7.8
2015-Mar-25 02:33N 31°07' E 122°17'1010.1
2015-Mar-25 01:33N 31°07' E 122°28'85 5.5
2015-Mar-24 10:15N 29°43' E 122°39'1217.0
2015-Mar-24 09:32N 29°42' E 122°25'1313.6
2015-Mar-24 08:33N 29°50' E 122°13'1312.9
2015-Mar-24 07:33N 29°57' E 121°60'8 8.1
2015-Mar-24 06:33N 29°57' E 121°50'0 0.0
2015-Mar-24 05:33N 29°57' E 121°50'0 0.0
2015-Mar-24 04:33N 29°57' E 121°50'0 0.0
2015-Mar-24 03:27N 29°57' E 121°50'0 0.0
2015-Mar-24 02:21N 29°57' E 121°50'0 0.0
2015-Mar-24 01:33N 29°57' E 121°50'0 0.0
2015-Mar-24 00:33N 29°57' E 121°50'0 0.1
2015-Mar-23 23:33N 29°57' E 121°50'8 7.9
2015-Mar-23 22:33N 29°57' E 121°60'1110.5
2015-Mar-23 21:33N 29°54' E 122°11'10 9.5
2015-Mar-23 20:29N 29°46' E 122°18'1010.7
2015-Mar-23 19:33N 29°42' E 122°29'34319.7
2015-Mar-23 02:08N 24°42' E 119°23'1221.1
2015-Mar-23 01:33N 24°36' E 119°11'2221.6
2015-Mar-23 00:33N 24°25' E 118°50'2221.6
2015-Mar-22 23:33N 24°17' E 118°28'1716.8
2015-Mar-22 22:33N 24°20' E 118°10'1110.9
2015-Mar-22 21:33N 24°29' E 118°04'2 1.5
2015-Mar-22 20:33N 24°31' E 118°05'0 0.0
2015-Mar-22 19:23N 24°31' E 118°05'0 0.0
2015-Mar-22 18:32N 24°31' E 118°05'0 0.0
2015-Mar-22 17:32N 24°31' E 118°05'0 0.1
2015-Mar-22 16:32N 24°31' E 118°05'0 0.1
2015-Mar-22 15:32N 24°31' E 118°05'0 0.0
2015-Mar-22 14:29N 24°31' E 118°05'0 0.2
2015-Mar-22 13:34N 24°31' E 118°04'9 8.8
2015-Mar-22 12:32N 24°22' E 118°08'1515.6
2015-Mar-22 11:33N 24°11' E 118°19'12921.5
2015-Mar-22 05:33N 22°36' E 119°55'2222.0
2015-Mar-22 04:33N 22°18' E 120°09'64622.6
2015-Mar-21 00:00N 18°30' E 130°54'   050 / 131016.010.8 0.526.021.826.6
2015-Mar-17 05:00N 14°00' E 146°12'26524.1 170 / 61010.010.8 1.027.024.327.3
2015-Mar-16 18:00N 15°12' E 150°36'   110 / 131014.210.8 1.025.022.227.0

Dump ship's entire track history